Time;durP1;ratioP1;P1;durP2;ratioP2;P2;SDS_P1;SDS_P2;PMS_P1;PMS_P2;Temp;Humidity;BMP_temperature;BMP_pressure;BME280_temperature;BME280_humidity;BME280_pressure;Samples;Min_cycle;Max_cycle;Signal;HPM_P1;HPM_P2
2023/01/01 00:02:08;;;;;;;40.13;18.75;;;;;;;15.15;55.61;100718.59;5052100;28;20037;-47
2023/01/01 00:04:35;;;;;;;100.80;60.85;;;;;;;15.10;56.26;100709.91;5052731;28;20048;-47
2023/01/01 00:07:01;;;;;;;21.92;6.75;;;;;;;15.15;55.05;100723.78;5053070;28;20032;-47
2023/01/01 00:12:10;;;;;;;26.85;6.93;;;;;;;15.10;55.35;100730.66;5052960;28;20128;-45
2023/01/01 00:14:35;;;;;;;24.05;7.15;;;;;;;15.10;54.82;100743.63;5052695;28;20056;-49
2023/01/01 00:17:01;;;;;;;26.75;6.47;;;;;;;15.12;54.43;100731.56;5052560;28;20036;-49
2023/01/01 00:19:27;;;;;;;31.13;7.88;;;;;;;15.11;54.63;100742.78;5052942;28;20104;-47
2023/01/01 00:21:52;;;;;;;24.30;6.18;;;;;;;15.08;54.58;100734.97;5052002;28;20403;-45
2023/01/01 00:24:18;;;;;;;24.10;6.15;;;;;;;15.05;54.83;100749.66;5053019;28;20033;-46
2023/01/01 00:26:43;;;;;;;22.60;5.25;;;;;;;15.06;53.83;100734.09;5052730;28;20025;-44
2023/01/01 00:29:08;;;;;;;24.08;6.07;;;;;;;15.01;54.38;100732.31;5052179;28;20033;-47
2023/01/01 00:31:34;;;;;;;19.33;5.65;;;;;;;14.99;54.40;100750.47;5052518;28;20059;-46
2023/01/01 00:33:59;;;;;;;17.98;5.22;;;;;;;15.02;53.81;100737.53;5052712;28;20037;-46
2023/01/01 00:36:26;;;;;;;20.45;5.45;;;;;;;15.02;53.99;100724.53;5051848;28;20534;-49
2023/01/01 00:38:52;;;;;;;17.98;5.03;;;;;;;15.05;53.21;100728.88;5052615;28;20048;-47
2023/01/01 00:41:17;;;;;;;21.73;5.40;;;;;;;15.02;53.96;100742.72;5052939;28;20469;-48
2023/01/01 00:43:43;;;;;;;15.98;4.57;;;;;;;15.20;52.88;100712.59;5051498;28;20384;-45
2023/01/01 00:46:10;;;;;;;21.13;5.38;;;;;;;15.12;53.67;100725.50;5052657;28;20044;-45
2023/01/01 00:48:35;;;;;;;20.05;5.03;;;;;;;15.10;53.74;100733.25;5052379;28;20030;-48
2023/01/01 00:51:01;;;;;;;25.70;5.55;;;;;;;15.06;54.00;100744.47;5051907;28;20044;-48
2023/01/01 00:53:26;;;;;;;19.17;5.32;;;;;;;15.07;54.13;100740.16;5052544;28;20027;-48
2023/01/01 00:55:52;;;;;;;18.60;5.15;;;;;;;15.10;53.51;100720.28;5052445;28;20025;-48
2023/01/01 00:58:18;;;;;;;18.25;4.82;;;;;;;15.14;53.10;100724.66;5051717;28;20021;-46
2023/01/01 01:00:44;;;;;;;19.00;5.20;;;;;;;15.09;53.71;100736.72;5052038;28;20041;-48
2023/01/01 01:03:26;;;;;;;21.00;5.30;;;;;;;15.04;54.03;100755.69;5052369;28;20033;-49
2023/01/01 01:05:55;;;;;;;19.60;4.95;;;;;;;14.94;54.69;100747.81;5051472;28;20024;-49
2023/01/01 01:08:21;;;;;;;18.77;5.35;;;;;;;14.94;54.96;100746.97;5054751;28;20111;-47
2023/01/01 01:10:46;;;;;;;21.98;5.57;;;;;;;14.88;54.85;100742.56;5055960;28;20109;-48
2023/01/01 01:13:11;;;;;;;18.85;5.05;;;;;;;14.90;55.25;100765.94;5055932;28;20070;-48
2023/01/01 01:15:37;;;;;;;26.85;5.97;;;;;;;14.86;55.16;100753.78;5056158;28;20032;-46
2023/01/01 01:18:03;;;;;;;18.42;5.13;;;;;;;14.93;54.47;100745.22;5055567;28;20076;-49
2023/01/01 01:20:28;;;;;;;17.65;5.25;;;;;;;14.91;55.19;100744.31;5055982;28;20124;-47
2023/01/01 01:22:53;;;;;;;18.15;4.53;;;;;;;14.89;55.05;100733.94;5056172;28;20111;-48
2023/01/01 01:25:18;;;;;;;14.68;4.53;;;;;;;14.90;54.89;100735.69;5055448;28;20812;-48
2023/01/01 01:27:44;;;;;;;15.52;4.80;;;;;;;14.84;55.42;100748.59;5055979;28;20035;-47
2023/01/01 01:30:09;;;;;;;21.77;4.50;;;;;;;14.77;56.07;100754.56;5056054;28;20029;-44
2023/01/01 01:32:35;;;;;;;22.58;5.10;;;;;;;14.71;56.55;100750.19;5055063;28;20025;-49
2023/01/01 01:35:00;;;;;;;16.67;4.15;;;;;;;14.77;55.62;100770.13;5056135;28;20086;-45
2023/01/01 01:37:25;;;;;;;11.77;3.95;;;;;;;14.70;56.38;100779.56;5056062;28;20095;-48
2023/01/01 01:39:50;;;;;;;14.27;3.95;;;;;;;14.67;56.02;100761.38;5054986;28;20376;-45
2023/01/01 01:42:17;;;;;;;17.20;4.82;;;;;;;14.68;55.86;100770.91;5055907;28;20379;-44
2023/01/01 01:44:48;;;;;;;16.95;4.40;;;;;;;14.63;55.98;100776.00;5055508;28;20025;-47
2023/01/01 01:47:34;;;;;;;16.63;4.50;;;;;;;14.61;55.96;100764.72;5054831;28;20039;-48
2023/01/01 01:50:06;;;;;;;14.32;4.32;;;;;;;14.57;56.13;100777.66;5055806;28;20039;-47
2023/01/01 01:52:35;;;;;;;17.33;4.65;;;;;;;14.49;56.45;100769.78;5055369;28;20021;-44
2023/01/01 01:55:03;;;;;;;18.90;3.97;;;;;;;14.41;56.64;100776.56;5054971;28;20033;-46
2023/01/01 01:57:29;;;;;;;14.57;4.63;;;;;;;14.40;56.16;100786.09;5055225;28;20025;-46
2023/01/01 01:59:56;;;;;;;15.35;4.50;;;;;;;14.42;55.83;100794.78;5056412;28;20028;-48
2023/01/01 02:02:35;;;;;;;16.13;4.07;;;;;;;14.41;55.95;100782.66;5057016;28;20057;-47
2023/01/01 02:05:02;;;;;;;20.33;4.38;;;;;;;14.37;55.80;100793.84;5055552;28;20072;-49
2023/01/01 02:07:30;;;;;;;15.40;4.00;;;;;;;14.31;56.41;100801.53;5054458;28;20040;-44
2023/01/01 02:09:56;;;;;;;15.30;4.90;;;;;;;14.28;56.23;100806.66;5055275;28;20021;-48
2023/01/01 02:12:22;;;;;;;15.18;4.53;;;;;;;14.29;55.80;100808.41;5055078;28;20537;-47
2023/01/01 02:14:48;;;;;;;15.02;4.32;;;;;;;14.28;55.95;100798.88;5054334;28;20130;-48
2023/01/01 02:17:26;;;;;;;11.32;3.72;;;;;;;14.26;55.76;100809.22;5055343;28;20060;-46
2023/01/01 02:20:00;;;;;;;14.27;4.40;;;;;;;14.25;56.12;100791.06;5053819;28;20029;-46
2023/01/01 02:22:43;;;;;;;18.08;4.45;;;;;;;14.25;55.64;100817.00;5054189;28;20025;-46
2023/01/01 02:25:14;;;;;;;13.93;3.88;;;;;;;14.21;55.97;100815.22;5055247;28;20028;-49
2023/01/01 02:27:45;;;;;;;16.58;4.35;;;;;;;14.16;56.02;100795.28;5054856;28;20052;-45
2023/01/01 02:30:11;;;;;;;12.45;4.03;;;;;;;14.14;55.96;100804.75;5054397;28;20040;-45
2023/01/01 02:32:55;;;;;;;13.98;3.88;;;;;;;14.11;56.70;100794.34;5054577;28;20075;-46
2023/01/01 02:35:37;;;;;;;13.90;3.70;;;;;;;14.11;55.72;100807.31;5053989;28;20064;-46
2023/01/01 02:38:40;;;;;;;18.52;3.95;;;;;;;14.06;56.04;100801.19;5054945;28;20029;-49
2023/01/01 02:41:09;;;;;;;13.48;4.03;;;;;;;14.04;56.29;100802.88;5053291;28;20057;-48
2023/01/01 02:43:35;;;;;;;13.10;4.03;;;;;;;14.02;56.34;100804.59;5053492;28;20151;-47
2023/01/01 02:46:06;;;;;;;11.77;3.30;;;;;;;13.97;56.56;100796.75;5054795;28;20024;-45
2023/01/01 02:48:38;;;;;;;14.82;4.10;;;;;;;13.98;56.20;100790.72;5054357;28;20078;-46
2023/01/01 02:51:15;;;;;;;17.63;3.90;;;;;;;13.99;56.28;100814.88;5054033;28;20087;-47
2023/01/01 02:53:52;;;;;;;16.15;3.47;;;;;;;13.94;56.39;100801.00;5054313;28;20419;-48
2023/01/01 02:56:42;;;;;;;12.68;3.47;;;;;;;13.95;56.82;100813.09;5054376;28;20396;-48
2023/01/01 03:02:12;;;;;;;12.10;3.45;;;;;;;13.91;57.02;100819.09;5054177;28;20051;-45
2023/01/01 03:04:46;;;;;;;14.70;3.20;;;;;;;13.89;57.04;100815.59;5053167;28;20041;-47
2023/01/01 03:07:44;;;;;;;11.15;3.53;;;;;;;13.90;57.22;100814.75;5054292;28;20051;-46
2023/01/01 03:10:27;;;;;;;19.02;4.15;;;;;;;13.90;57.28;100825.13;5052869;28;20040;-47
2023/01/01 03:13:04;;;;;;;13.55;3.42;;;;;;;13.89;57.72;100825.97;5053575;28;20028;-47
2023/01/01 03:15:58;;;;;;;15.60;3.50;;;;;;;13.89;58.02;100818.19;5053991;28;20040;-47
2023/01/01 03:18:29;;;;;;;11.77;3.35;;;;;;;13.83;58.37;100825.03;5053216;28;20415;-48
2023/01/01 03:20:58;;;;;;;14.48;3.20;;;;;;;13.80;58.93;100840.53;5054081;28;20079;-48
2023/01/01 03:23:34;;;;;;;13.68;3.30;;;;;;;13.79;58.95;100837.91;5053957;28;20029;-49
2023/01/01 03:26:05;;;;;;;14.52;3.42;;;;;;;13.74;59.78;100837.81;5053092;28;20028;-48
2023/01/01 03:28:47;;;;;;;14.20;3.70;;;;;;;13.75;60.01;100837.00;5053439;28;20437;-47
2023/01/01 03:31:17;;;;;;;22.98;3.58;;;;;;;13.77;59.33;100845.63;5053308;28;20044;-48
2023/01/01 03:33:48;;;;;;;11.82;2.83;;;;;;;13.71;60.20;100842.97;5052741;28;20075;-46
2023/01/01 03:36:36;;;;;;;12.32;3.55;;;;;;;13.73;60.36;100833.50;5053820;28;20025;-48
2023/01/01 03:39:11;;;;;;;15.43;3.72;;;;;;;13.70;60.31;100838.63;5052941;28;20092;-47
2023/01/01 03:41:41;;;;;;;16.60;3.50;;;;;;;13.74;60.22;100855.97;5033455;28;20041;-49
2023/01/01 03:44:14;;;;;;;12.02;3.38;;;;;;;13.69;60.83;100842.06;5033417;28;20031;-48
2023/01/01 03:46:40;;;;;;;10.77;3.10;;;;;;;13.72;60.63;100852.47;5032744;28;20060;-48
2023/01/01 03:49:09;;;;;;;13.43;3.30;;;;;;;13.69;60.98;100862.78;5033670;28;20041;-48
2023/01/01 03:51:47;;;;;;;13.25;3.47;;;;;;;13.69;60.97;100861.91;5033381;28;20017;-46
2023/01/01 03:54:30;;;;;;;12.73;3.42;;;;;;;13.69;61.32;100867.97;5032684;28;20104;-47
2023/01/01 03:57:02;;;;;;;14.10;3.58;;;;;;;13.75;60.55;100864.59;5033620;28;20036;-45
2023/01/01 03:59:54;;;;;;;11.38;3.08;;;;;;;13.74;60.72;100876.69;5033127;28;20068;-45
2023/01/01 04:02:25;;;;;;;11.40;2.92;;;;;;;13.71;61.17;100860.22;5032542;28;20061;-47
2023/01/01 04:04:51;;;;;;;10.15;2.80;;;;;;;13.70;61.24;100869.72;5033158;28;20028;-47
2023/01/01 04:07:16;;;;;;;12.57;3.40;;;;;;;13.69;61.35;100878.31;5032441;28;20026;-48
2023/01/01 04:09:48;;;;;;;16.88;3.72;;;;;;;13.64;61.68;100872.19;5033011;28;20426;-47
2023/01/01 04:12:16;;;;;;;12.45;3.28;;;;;;;13.61;61.97;100877.31;5033217;28;20064;-47
2023/01/01 04:14:42;;;;;;;15.48;3.33;;;;;;;13.69;61.33;100872.28;5032230;28;20034;-48
2023/01/01 04:17:09;;;;;;;10.30;3.30;;;;;;;13.65;62.21;100881.72;5033288;28;20021;-48
2023/01/01 04:19:34;;;;;;;11.68;3.35;;;;;;;13.68;61.74;100871.38;5032647;28;20104;-46
2023/01/01 04:22:00;;;;;;;15.40;3.47;;;;;;;13.68;61.96;100883.47;5032546;28;20503;-49
2023/01/01 04:24:26;;;;;;;13.25;3.53;;;;;;;13.61;62.76;100895.47;5033118;28;20034;-47
2023/01/01 04:26:52;;;;;;;13.43;3.25;;;;;;;13.62;62.40;100894.59;5032840;28;20057;-45
2023/01/01 04:29:18;;;;;;;13.88;3.53;;;;;;;13.60;62.75;100885.94;5032192;28;20022;-47
2023/01/01 04:31:44;;;;;;;14.25;3.42;;;;;;;13.58;62.84;100874.66;5032596;28;20112;-47
2023/01/01 04:34:09;;;;;;;16.83;3.83;;;;;;;13.53;63.30;100871.13;5032577;28;20053;-47
2023/01/01 04:36:35;;;;;;;16.10;3.50;;;;;;;13.55;63.19;100882.38;5032199;28;20487;-46
2023/01/01 04:39:01;;;;;;;16.25;3.92;;;;;;;13.52;63.83;100890.09;5032929;28;20025;-47
2023/01/01 04:41:26;;;;;;;16.88;3.53;;;;;;;13.49;63.76;100891.78;5032644;28;20123;-45
2023/01/01 04:43:52;;;;;;;12.20;3.08;;;;;;;13.49;63.81;100909.91;5035346;28;20427;-46
2023/01/01 04:46:19;;;;;;;8.73;3.10;;;;;;;13.46;64.18;100908.97;5036877;28;20040;-47
2023/01/01 04:48:45;;;;;;;12.25;3.38;;;;;;;13.44;64.46;100906.38;5036286;28;20025;-46
2023/01/01 04:51:12;;;;;;;15.15;3.33;;;;;;;13.40;64.91;100891.63;5036495;28;20029;-48
2023/01/01 04:53:38;;;;;;;12.70;3.38;;;;;;;13.40;65.03;100906.28;5036352;28;20488;-47
2023/01/01 04:56:04;;;;;;;16.60;3.53;;;;;;;13.40;65.13;100912.34;5036049;28;20034;-48
2023/01/01 04:58:30;;;;;;;10.15;3.22;;;;;;;13.39;65.35;100917.47;5036608;28;20025;-48
2023/01/01 05:00:55;;;;;;;14.68;3.70;;;;;;;13.39;65.44;100910.59;5036520;28;20099;-49
2023/01/01 05:03:20;;;;;;;15.20;3.53;;;;;;;13.40;65.84;100917.50;5035863;28;20029;-48
2023/01/01 05:05:47;;;;;;;10.30;3.40;;;;;;;13.39;65.84;100925.22;5036154;28;20033;-45
2023/01/01 05:08:12;;;;;;;13.40;3.38;;;;;;;13.35;66.39;100934.66;5036639;28;20021;-46
2023/01/01 05:10:38;;;;;;;11.30;3.33;;;;;;;13.37;66.27;100940.72;5035583;28;20052;-45
2023/01/01 05:13:06;;;;;;;15.27;3.70;;;;;;;13.34;66.34;100944.09;5036412;28;20025;-47
2023/01/01 05:15:31;;;;;;;10.98;3.25;;;;;;;13.35;66.49;100939.81;5036027;28;20029;-46
2023/01/01 05:17:56;;;;;;;10.95;3.55;;;;;;;13.31;67.09;100943.16;5035542;28;20036;-45
2023/01/01 05:20:21;;;;;;;13.02;3.55;;;;;;;13.30;67.02;100947.47;5036516;28;20030;-47
2023/01/01 05:22:47;;;;;;;11.93;3.22;;;;;;;13.27;67.50;100952.59;5035900;28;20038;-47
2023/01/01 05:25:12;;;;;;;14.77;3.95;;;;;;;13.23;67.98;100970.63;5035604;28;20065;-45
2023/01/01 05:27:37;;;;;;;13.13;3.63;;;;;;;13.22;68.17;100976.63;5035961;28;20026;-45
2023/01/01 05:30:03;;;;;;;12.13;3.58;;;;;;;13.20;68.38;100993.88;5036215;28;20030;-46
2023/01/01 05:32:28;;;;;;;19.98;3.72;;;;;;;13.19;68.27;100992.97;5035052;28;20491;-46
2023/01/01 05:34:55;;;;;;;13.45;3.67;;;;;;;13.18;68.25;100992.09;5036202;28;20036;-45
2023/01/01 05:37:20;;;;;;;12.75;3.72;;;;;;;13.16;68.86;100990.31;5035737;28;20372;-48
2023/01/01 05:39:46;;;;;;;14.35;3.40;;;;;;;13.14;69.00;100999.75;5035201;28;20496;-47
2023/01/01 05:42:11;;;;;;;18.30;3.90;;;;;;;13.09;69.84;101001.38;5035794;28;20021;-48
2023/01/01 05:44:37;;;;;;;12.05;3.28;;;;;;;13.11;69.67;100986.78;5035271;28;20029;-48
2023/01/01 05:47:02;;;;;;;17.00;3.83;;;;;;;13.14;69.54;100992.00;5035142;28;20021;-48
2023/01/01 05:49:27;;;;;;;16.40;4.20;;;;;;;13.13;69.80;101001.47;5035662;28;20034;-45
2023/01/01 05:51:52;;;;;;;15.07;3.92;;;;;;;13.07;70.49;100998.75;5035401;28;20021;-45
2023/01/01 05:54:18;;;;;;;11.82;3.28;;;;;;;13.04;70.79;101013.34;5035160;28;20030;-48
2023/01/01 05:56:43;;;;;;;12.45;4.22;;;;;;;12.99;71.33;101024.47;5035363;28;20091;-49
2023/01/01 05:59:09;;;;;;;19.88;4.15;;;;;;;12.99;71.19;101018.44;5035367;28;20512;-47
2023/01/01 06:01:35;;;;;;;13.75;3.53;;;;;;;12.94;71.95;101026.06;5034469;28;20091;-48
2023/01/01 06:04:00;;;;;;;15.00;3.80;;;;;;;12.90;72.12;101033.72;5035322;28;20037;-47
2023/01/01 06:06:28;;;;;;;15.25;3.75;;;;;;;12.88;72.43;101036.28;5034840;28;20104;-47
2023/01/01 06:08:54;;;;;;;;;;;;;;;12.91;72.50;101046.72;5035785;28;20381;-45
2023/01/01 06:11:20;;;;;;;12.75;3.95;;;;;;;12.83;73.03;101041.34;5035325;28;20383;-48
2023/01/01 06:13:45;;;;;;;13.00;3.58;;;;;;;12.79;73.38;101047.28;5034274;28;20100;-46
2023/01/01 06:16:10;;;;;;;14.02;3.80;;;;;;;12.78;73.63;101060.16;5035227;28;20354;-49
2023/01/01 06:18:36;;;;;;;14.10;4.38;;;;;;;12.74;73.73;101056.63;5035092;28;20104;-44
2023/01/01 06:21:10;;;;;;;19.88;4.50;;;;;;;12.73;74.10;101067.84;5034378;28;20095;-48
2023/01/01 06:23:35;;;;;;;17.20;3.97;;;;;;;12.69;74.79;101073.75;5034845;28;20042;-46
2023/01/01 06:26:21;;;;;;;15.95;4.18;;;;;;;12.66;75.50;101087.47;5035111;28;20029;-48
2023/01/01 06:28:47;;;;;;;12.38;3.60;;;;;;;12.51;78.86;101103.50;5034254;28;20042;-47
2023/01/01 06:31:15;;;;;;;17.20;4.25;;;;;;;12.17;82.62;101119.81;5035182;28;20112;-47
2023/01/01 06:33:41;;;;;;;14.38;3.53;;;;;;;11.81;85.21;101134.31;5034356;28;20505;-49
2023/01/01 06:36:09;;;;;;;12.85;3.45;;;;;;;11.47;88.53;101133.28;5034545;28;20053;-45
2023/01/01 06:38:37;;;;;;;17.40;3.85;;;;;;;11.19;91.73;101137.59;5034503;28;20358;-49
2023/01/01 06:41:09;;;;;;;15.30;4.00;;;;;;;11.02;93.13;101137.03;5034676;28;20029;-48
2023/01/01 06:43:35;;;;;;;11.55;3.63;;;;;;;10.93;94.06;101138.44;5033888;28;20469;-46
2023/01/01 06:46:19;;;;;;;12.60;4.32;;;;;;;10.86;94.92;101125.34;5035119;28;20021;-48
2023/01/01 06:48:46;;;;;;;14.43;4.70;;;;;;;10.78;95.33;101129.41;5033676;28;20096;-46
2023/01/01 06:51:14;;;;;;;13.27;4.38;;;;;;;10.83;93.00;101135.56;5034626;28;20025;-47
2023/01/01 06:53:39;;;;;;;10.10;4.18;;;;;;;10.85;92.92;101133.91;5034190;28;20030;-45
2023/01/01 06:56:05;;;;;;;12.27;4.10;;;;;;;10.86;93.35;101138.25;5033980;28;20488;-48
2023/01/01 06:58:30;;;;;;;11.82;4.18;;;;;;;10.87;93.51;101145.16;5034367;28;20435;-47
2023/01/01 07:01:04;;;;;;;18.20;4.68;;;;;;;10.89;94.44;101167.53;5034339;28;20507;-46
2023/01/01 07:03:29;;;;;;;16.45;5.32;;;;;;;10.85;94.95;101159.69;5033409;28;20037;-49
2023/01/01 07:05:54;;;;;;;14.77;5.93;;;;;;;10.79;96.46;101159.47;5033817;28;20022;-47
2023/01/01 07:08:20;;;;;;;18.95;6.10;;;;;;;10.78;96.26;101156.84;5034300;28;20085;-47
2023/01/01 07:10:45;;;;;;;14.18;5.57;;;;;;;10.72;96.51;101165.28;5033408;28;20108;-45
2023/01/01 07:13:10;;;;;;;14.13;5.55;;;;;;;10.80;95.96;101173.25;5034337;28;20465;-47
2023/01/01 07:15:36;;;;;;;12.45;5.80;;;;;;;10.78;97.43;101185.22;5033721;28;20021;-45
2023/01/01 07:18:01;;;;;;;15.90;6.07;;;;;;;10.72;98.72;101185.91;5033768;28;20415;-47
2023/01/01 07:20:27;;;;;;;15.85;5.57;;;;;;;10.69;98.96;101186.66;5034138;28;20029;-45
2023/01/01 07:22:52;;;;;;;16.55;5.80;;;;;;;10.68;98.95;101186.63;5034047;28;20028;-48
2023/01/01 07:25:17;;;;;;;18.80;5.65;;;;;;;10.63;99.06;101185.59;5033587;28;20109;-46
2023/01/01 07:27:43;;;;;;;15.55;5.03;;;;;;;10.61;98.57;101185.50;5033664;28;20031;-47
2023/01/01 07:30:09;;;;;;;17.83;4.90;;;;;;;10.58;97.38;101197.44;5033794;28;20036;-47
2023/01/01 07:32:34;;;;;;;14.45;4.70;;;;;;;10.59;96.07;101188.84;5032986;28;20465;-48
2023/01/01 07:34:59;;;;;;;13.75;3.88;;;;;;;10.56;96.21;101199.97;5033772;28;20060;-47
2023/01/01 07:37:25;;;;;;;21.30;4.18;;;;;;;10.54;95.48;101207.63;5033285;28;20025;-47
2023/01/01 07:39:50;;;;;;;12.45;3.40;;;;;;;10.50;94.79;101215.19;5033044;28;20084;-46
2023/01/01 07:42:16;;;;;;;11.75;3.20;;;;;;;10.49;93.60;101206.56;5033792;28;20025;-48
2023/01/01 07:44:41;;;;;;;12.23;3.10;;;;;;;10.49;91.64;101223.75;5033078;28;20064;-46
2023/01/01 07:47:32;;;;;;;13.73;2.95;;;;;;;10.49;91.04;101219.47;5032960;28;20075;-44
2023/01/01 07:49:58;;;;;;;15.60;2.78;;;;;;;10.44;91.43;101215.84;5032234;28;20397;-48
2023/01/01 07:52:23;;;;;;;11.77;2.70;;;;;;;10.39;91.88;101230.25;5032890;28;20027;-46
2023/01/01 07:54:48;;;;;;;12.05;2.53;;;;;;;10.39;91.93;101230.25;5033110;28;20029;-49
2023/01/01 07:57:14;;;;;;;12.57;2.65;;;;;;;10.33;92.97;101248.06;5033204;28;20025;-47
2023/01/01 07:59:40;;;;;;;10.82;2.78;;;;;;;10.26;95.09;101251.22;5032363;28;20036;-48
2023/01/01 08:02:05;;;;;;;15.95;3.08;;;;;;;10.21;95.96;101251.94;5033126;28;20400;-48
2023/01/01 08:04:30;;;;;;;15.10;2.65;;;;;;;10.19;96.81;101271.59;5032555;28;20358;-45
2023/01/01 08:06:56;;;;;;;13.70;3.10;;;;;;;10.16;97.43;101281.78;5032778;28;20488;-47
2023/01/01 08:09:21;;;;;;;17.63;3.22;;;;;;;10.12;98.56;101295.38;5033323;28;20104;-48
2023/01/01 08:11:46;;;;;;;12.52;2.85;;;;;;;10.09;100.00;101312.41;5032742;28;20362;-46
2023/01/01 08:14:12;;;;;;;13.57;3.13;;;;;;;10.00;100.00;101318.06;5032528;28;20056;-47
2023/01/01 08:16:37;;;;;;;15.70;4.13;;;;;;;9.87;100.00;101314.13;5032243;28;20093;-46
2023/01/01 08:19:03;;;;;;;22.35;3.95;;;;;;;9.75;100.00;101313.59;5032590;28;20065;-47
2023/01/01 08:21:29;;;;;;;20.80;4.47;;;;;;;9.65;100.00;101307.22;5032104;28;20022;-44
2023/01/01 08:23:54;;;;;;;19.45;4.15;;;;;;;9.59;100.00;101307.84;5032993;28;20057;-46
2023/01/01 08:26:31;;;;;;;21.35;4.78;;;;;;;9.53;100.00;101313.63;5032813;28;20063;-47
2023/01/01 08:28:58;;;;;;;18.92;5.15;;;;;;;9.48;100.00;101309.97;5032145;28;20514;-45
2023/01/01 08:31:23;;;;;;;26.83;5.80;;;;;;;9.44;100.00;101307.19;5032687;28;20091;-48
2023/01/01 08:33:49;;;;;;;18.10;4.47;;;;;;;9.43;100.00;101308.91;5032259;28;20481;-47
2023/01/01 08:36:15;;;;;;;15.48;4.40;;;;;;;9.44;100.00;101313.25;5032260;28;20467;-45
2023/01/01 08:38:41;;;;;;;21.08;4.75;;;;;;;9.43;100.00;101301.19;5032390;28;20134;-44
2023/01/01 08:41:06;;;;;;;13.65;4.20;;;;;;;9.43;100.00;101320.91;5031906;28;20381;-45
2023/01/01 08:43:31;;;;;;;20.08;4.43;;;;;;;9.43;100.00;101315.75;5032339;28;20473;-45
2023/01/01 08:45:57;;;;;;;20.85;4.38;;;;;;;9.44;100.00;101333.81;5032714;28;20129;-48
2023/01/01 08:48:22;;;;;;;16.80;4.47;;;;;;;9.44;100.00;101333.81;5031879;28;20022;-49
2023/01/01 08:50:55;;;;;;;21.25;4.20;;;;;;;9.44;100.00;101349.25;5032506;28;20480;-45
2023/01/01 08:53:21;;;;;;;17.00;4.68;;;;;;;9.46;100.00;101352.75;5032729;28;20037;-47
2023/01/01 08:56:09;;;;;;;18.02;5.38;;;;;;;9.47;100.00;101362.25;5031471;28;20032;-45
2023/01/01 08:58:36;;;;;;;24.63;5.80;;;;;;;9.48;100.00;101361.44;5032266;28;20074;-48
2023/01/01 09:01:02;;;;;;;23.08;5.90;;;;;;;9.49;100.00;101347.75;5032367;28;20045;-47
2023/01/01 09:03:27;;;;;;;27.52;5.85;;;;;;;9.49;100.00;101341.72;5032001;28;20075;-45
2023/01/01 09:05:53;;;;;;;22.33;6.22;;;;;;;9.48;100.00;101340.00;5032714;28;20029;-48
2023/01/01 09:08:19;;;;;;;27.60;5.60;;;;;;;9.49;100.00;101339.16;5032411;28;20025;-48
2023/01/01 09:10:44;;;;;;;19.23;5.55;;;;;;;9.50;100.00;101344.38;5031515;28;20419;-44
2023/01/01 09:13:11;;;;;;;25.13;5.93;;;;;;;9.52;100.00;101336.72;5032354;28;20041;-47
2023/01/01 09:15:36;;;;;;;23.88;6.07;;;;;;;9.51;100.00;101335.81;5032062;28;20060;-48
2023/01/01 09:18:02;;;;;;;23.05;6.55;;;;;;;9.53;100.00;101341.06;5032074;28;20437;-49
2023/01/01 09:20:27;;;;;;;32.85;6.82;;;;;;;9.53;100.00;101346.22;5032241;28;20036;-44
2023/01/01 09:22:52;;;;;;;22.95;6.72;;;;;;;9.54;100.00;101351.41;5032068;28;20088;-47
2023/01/01 09:25:18;;;;;;;30.48;7.30;;;;;;;9.54;100.00;101341.13;5031893;28;20469;-45
2023/01/01 09:27:43;;;;;;;30.08;7.75;;;;;;;9.54;100.00;101346.25;5032041;28;20035;-48
2023/01/01 09:30:09;;;;;;;27.00;7.78;;;;;;;9.58;100.00;101348.94;5035769;28;20029;-45
2023/01/01 09:32:34;;;;;;;26.80;7.40;;;;;;;9.59;100.00;101348.16;5035358;28;20138;-46
2023/01/01 09:35:00;;;;;;;24.80;7.10;;;;;;;9.59;100.00;101355.88;5036141;28;20427;-45
2023/01/01 09:37:25;;;;;;;28.48;7.95;;;;;;;9.62;100.00;101366.28;5035340;28;20022;-47
2023/01/01 09:39:51;;;;;;;31.27;7.70;;;;;;;9.61;100.00;101362.84;5035585;28;20025;-46
2023/01/01 09:42:19;;;;;;;29.92;7.13;;;;;;;9.61;100.00;101367.97;5035736;28;20033;-48
2023/01/01 09:45:03;;;;;;;25.25;7.65;;;;;;;9.62;100.00;101364.59;5034913;28;20036;-49
2023/01/01 09:47:28;;;;;;;25.80;7.65;;;;;;;9.62;100.00;101362.03;5035468;28;20350;-48
2023/01/01 09:49:59;;;;;;;26.97;7.13;;;;;;;9.60;100.00;101365.34;5035525;28;20047;-47
2023/01/01 09:52:35;;;;;;;28.85;7.70;;;;;;;9.59;100.00;101368.72;5035165;28;20745;-47
2023/01/01 09:55:18;;;;;;;31.45;7.85;;;;;;;9.57;100.00;101368.66;5035646;28;20491;-45
2023/01/01 09:57:44;;;;;;;28.02;7.88;;;;;;;9.55;100.00;101366.03;5035232;28;20041;-48
2023/01/01 10:00:14;;;;;;;31.75;8.75;;;;;;;9.58;100.00;101361.81;5035158;28;20477;-47
2023/01/01 10:03:04;;;;;;;30.17;8.45;;;;;;;9.59;100.00;101358.44;5035015;28;20071;-46
2023/01/01 10:05:51;;;;;;;27.25;8.40;;;;;;;9.59;100.00;101359.31;5034336;28;20041;-46
2023/01/01 10:08:26;;;;;;;35.53;11.00;;;;;;;9.61;100.00;101356.81;5035540;28;20029;-47
2023/01/01 10:11:04;;;;;;;44.08;15.15;;;;;;;9.63;100.00;101361.22;5034875;28;20280;-48
2023/01/01 10:13:52;;;;;;;51.42;22.23;;;;;;;9.66;100.00;101358.75;5034337;28;20388;-48
2023/01/01 10:16:39;;;;;;;71.05;36.67;;;;;;;9.66;100.00;101365.63;5035231;28;20021;-46
2023/01/01 10:19:24;;;;;;;35.60;12.80;;;;;;;9.67;100.00;101357.06;5035037;28;20033;-47
2023/01/01 10:21:53;;;;;;;31.58;11.73;;;;;;;9.67;100.00;101351.91;5034236;28;20440;-49
2023/01/01 10:24:42;;;;;;;28.10;9.48;;;;;;;9.70;100.00;101357.19;5035170;28;20056;-48
2023/01/01 10:27:24;;;;;;;30.20;9.68;;;;;;;9.72;100.00;101361.59;5034104;28;20057;-46
2023/01/01 10:29:51;;;;;;;38.90;10.38;;;;;;;9.80;100.00;101358.44;5034895;28;20033;-48
2023/01/01 10:32:20;;;;;;;37.38;9.57;;;;;;;9.85;100.00;101364.66;5034612;28;20095;-46
2023/01/01 10:34:46;;;;;;;34.50;9.80;;;;;;;9.92;100.00;101365.81;5034178;28;20093;-48
2023/01/01 10:37:13;;;;;;;26.25;9.05;;;;;;;10.00;100.00;101372.13;5034829;28;20057;-45
2023/01/01 10:39:40;;;;;;;30.00;8.88;;;;;;;10.09;100.00;101366.47;5033784;28;20050;-47
2023/01/01 10:42:05;;;;;;;27.83;9.07;;;;;;;10.15;100.00;101359.88;5033949;28;20025;-48
2023/01/01 10:44:33;;;;;;;24.17;8.80;;;;;;;10.18;100.00;101362.56;5034347;28;20392;-48
2023/01/01 10:47:08;;;;;;;26.58;10.10;;;;;;;10.21;100.00;101362.69;5034526;28;20022;-47
2023/01/01 10:49:33;;;;;;;35.33;11.85;;;;;;;10.29;100.00;101355.25;5033965;28;20088;-48
2023/01/01 10:51:58;;;;;;;39.80;15.65;;;;;;;10.36;100.00;101364.13;5034743;28;20018;-45
2023/01/01 10:54:31;;;;;;;37.35;13.68;;;;;;;10.44;100.00;101375.59;5034303;28;20480;-48
2023/01/01 10:56:57;;;;;;;32.95;11.68;;;;;;;10.49;100.00;101368.06;5034130;28;20064;-47
2023/01/01 10:59:34;;;;;;;33.45;9.10;;;;;;;10.58;100.00;101367.53;5034333;28;20057;-48
2023/01/01 11:02:20;;;;;;;28.80;8.67;;;;;;;10.72;100.00;101366.34;5033458;28;20497;-48
2023/01/01 11:04:46;;;;;;;25.75;8.32;;;;;;;10.89;100.00;101377.28;5034056;28;20026;-49
2023/01/01 11:07:27;;;;;;;26.35;9.02;;;;;;;11.01;100.00;101374.28;5034132;28;20036;-47
2023/01/01 11:10:00;;;;;;;34.00;8.82;;;;;;;11.12;100.00;101377.25;5033781;28;20029;-48
2023/01/01 11:12:29;;;;;;;30.30;7.97;;;;;;;11.16;100.00;101392.88;5034369;28;20025;-47
2023/01/01 11:14:58;;;;;;;29.75;8.25;;;;;;;11.22;100.00;101388.75;5034028;28;20036;-49
2023/01/01 11:17:30;;;;;;;30.70;7.50;;;;;;;11.29;100.00;101390.75;5033457;28;20476;-48
2023/01/01 11:19:57;;;;;;;26.35;8.25;;;;;;;11.32;100.00;101396.91;5033974;28;20037;-49
2023/01/01 11:22:44;;;;;;;38.00;8.68;;;;;;;11.40;100.00;101397.19;5033608;28;20485;-48
2023/01/01 11:25:24;;;;;;;33.33;8.07;;;;;;;11.45;100.00;101400.81;5033624;28;20056;-48
2023/01/01 11:27:50;;;;;;;22.83;7.10;;;;;;;11.49;100.00;101400.06;5033657;28;20029;-48
2023/01/01 11:30:26;;;;;;;23.17;8.15;;;;;;;11.56;100.00;101395.13;5033070;28;20109;-48
2023/01/01 11:33:01;;;;;;;31.42;7.97;;;;;;;11.61;99.99;101393.59;5033569;28;20037;-48